sensor_id;sensor_type;location;lat;lon;timestamp;P1;durP1;ratioP1;P2;durP2;ratioP2
826;SDS011;395;48.132;11.608;2023-01-10T00:00:45;2.42;;;1.48;;
826;SDS011;395;48.132;11.608;2023-01-10T00:03:11;1.57;;;1.47;;
826;SDS011;395;48.132;11.608;2023-01-10T00:05:37;1.70;;;1.50;;
826;SDS011;395;48.132;11.608;2023-01-10T00:08:04;1.88;;;1.77;;
826;SDS011;395;48.132;11.608;2023-01-10T00:10:31;1.50;;;1.40;;
826;SDS011;395;48.132;11.608;2023-01-10T00:12:58;1.45;;;1.35;;
826;SDS011;395;48.132;11.608;2023-01-10T00:15:42;2.45;;;1.63;;
826;SDS011;395;48.132;11.608;2023-01-10T00:18:08;1.57;;;1.47;;
826;SDS011;395;48.132;11.608;2023-01-10T00:20:34;2.00;;;1.63;;
826;SDS011;395;48.132;11.608;2023-01-10T00:22:59;1.63;;;1.43;;
826;SDS011;395;48.132;11.608;2023-01-10T00:25:25;1.93;;;1.47;;
826;SDS011;395;48.132;11.608;2023-01-10T00:27:54;2.10;;;1.27;;
826;SDS011;395;48.132;11.608;2023-01-10T00:30:38;1.42;;;1.33;;
826;SDS011;395;48.132;11.608;2023-01-10T00:33:04;1.55;;;1.45;;
826;SDS011;395;48.132;11.608;2023-01-10T00:35:31;2.28;;;1.25;;
826;SDS011;395;48.132;11.608;2023-01-10T00:37:57;1.35;;;1.17;;
826;SDS011;395;48.132;11.608;2023-01-10T00:40:29;1.30;;;1.20;;
826;SDS011;395;48.132;11.608;2023-01-10T00:42:56;3.50;;;1.70;;
826;SDS011;395;48.132;11.608;2023-01-10T00:45:40;1.30;;;1.20;;
826;SDS011;395;48.132;11.608;2023-01-10T00:48:08;1.45;;;1.35;;
826;SDS011;395;48.132;11.608;2023-01-10T00:50:33;2.10;;;1.33;;
826;SDS011;395;48.132;11.608;2023-01-10T00:52:59;1.70;;;1.30;;
826;SDS011;395;48.132;11.608;2023-01-10T00:55:25;2.00;;;1.03;;
826;SDS011;395;48.132;11.608;2023-01-10T00:57:50;1.57;;;1.47;;
826;SDS011;395;48.132;11.608;2023-01-10T01:00:16;1.40;;;1.30;;
826;SDS011;395;48.132;11.608;2023-01-10T01:02:42;1.43;;;1.20;;
826;SDS011;395;48.132;11.608;2023-01-10T01:05:07;1.50;;;1.40;;
826;SDS011;395;48.132;11.608;2023-01-10T01:07:33;1.30;;;1.20;;
826;SDS011;395;48.132;11.608;2023-01-10T01:09:59;1.40;;;1.30;;
826;SDS011;395;48.132;11.608;2023-01-10T01:12:43;1.30;;;1.20;;
826;SDS011;395;48.132;11.608;2023-01-10T01:15:08;2.07;;;1.80;;
826;SDS011;395;48.132;11.608;2023-01-10T01:17:34;1.53;;;1.30;;
826;SDS011;395;48.132;11.608;2023-01-10T01:20:00;1.77;;;1.30;;
826;SDS011;395;48.132;11.608;2023-01-10T01:22:25;1.37;;;1.23;;
826;SDS011;395;48.132;11.608;2023-01-10T01:24:51;1.30;;;1.20;;
826;SDS011;395;48.132;11.608;2023-01-10T01:27:17;1.47;;;1.33;;
826;SDS011;395;48.132;11.608;2023-01-10T01:29:42;1.30;;;1.20;;
826;SDS011;395;48.132;11.608;2023-01-10T01:32:08;1.17;;;1.07;;
826;SDS011;395;48.132;11.608;2023-01-10T01:34:33;1.47;;;1.07;;
826;SDS011;395;48.132;11.608;2023-01-10T01:36:59;1.53;;;1.33;;
826;SDS011;395;48.132;11.608;2023-01-10T01:39:25;1.90;;;1.47;;
826;SDS011;395;48.132;11.608;2023-01-10T01:41:51;1.30;;;1.20;;
826;SDS011;395;48.132;11.608;2023-01-10T01:44:23;1.15;;;1.02;;
826;SDS011;395;48.132;11.608;2023-01-10T01:46:59;1.27;;;1.10;;
826;SDS011;395;48.132;11.608;2023-01-10T01:49:26;1.20;;;1.10;;
826;SDS011;395;48.132;11.608;2023-01-10T01:51:55;1.70;;;1.42;;
826;SDS011;395;48.132;11.608;2023-01-10T01:54:26;1.73;;;1.00;;
826;SDS011;395;48.132;11.608;2023-01-10T01:56:54;1.40;;;1.00;;
826;SDS011;395;48.132;11.608;2023-01-10T01:59:32;2.42;;;1.05;;
826;SDS011;395;48.132;11.608;2023-01-10T02:02:04;1.45;;;1.20;;
826;SDS011;395;48.132;11.608;2023-01-10T02:04:47;2.08;;;0.90;;
826;SDS011;395;48.132;11.608;2023-01-10T02:07:21;5.18;;;1.20;;
826;SDS011;395;48.132;11.608;2023-01-10T02:09:56;0.82;;;0.75;;
826;SDS011;395;48.132;11.608;2023-01-10T02:12:25;1.60;;;1.10;;
826;SDS011;395;48.132;11.608;2023-01-10T02:14:54;1.30;;;0.90;;
826;SDS011;395;48.132;11.608;2023-01-10T02:17:21;1.20;;;1.00;;
826;SDS011;395;48.132;11.608;2023-01-10T02:27:34;2.38;;;1.30;;
826;SDS011;395;48.132;11.608;2023-01-10T02:33:03;2.03;;;1.20;;
826;SDS011;395;48.132;11.608;2023-01-10T02:41:03;2.30;;;1.55;;
826;SDS011;395;48.132;11.608;2023-01-10T02:43:53;1.40;;;1.20;;
826;SDS011;395;48.132;11.608;2023-01-10T02:46:31;1.50;;;1.15;;
826;SDS011;395;48.132;11.608;2023-01-10T02:48:59;2.20;;;1.30;;
826;SDS011;395;48.132;11.608;2023-01-10T02:51:26;1.27;;;1.17;;
826;SDS011;395;48.132;11.608;2023-01-10T02:56:48;2.30;;;1.23;;
826;SDS011;395;48.132;11.608;2023-01-10T03:07:52;1.55;;;1.20;;
826;SDS011;395;48.132;11.608;2023-01-10T03:10:22;1.33;;;1.23;;
826;SDS011;395;48.132;11.608;2023-01-10T03:12:57;1.40;;;1.30;;
826;SDS011;395;48.132;11.608;2023-01-10T03:15:31;1.50;;;1.40;;
826;SDS011;395;48.132;11.608;2023-01-10T03:18:00;1.38;;;1.27;;
826;SDS011;395;48.132;11.608;2023-01-10T03:20:28;1.00;;;1.00;;
826;SDS011;395;48.132;11.608;2023-01-10T03:22:57;1.05;;;0.95;;
826;SDS011;395;48.132;11.608;2023-01-10T03:25:27;1.10;;;1.00;;
826;SDS011;395;48.132;11.608;2023-01-10T03:28:05;1.15;;;0.80;;
826;SDS011;395;48.132;11.608;2023-01-10T03:31:07;1.55;;;1.20;;
826;SDS011;395;48.132;11.608;2023-01-10T03:33:36;1.05;;;0.95;;
826;SDS011;395;48.132;11.608;2023-01-10T03:36:15;0.85;;;0.85;;
826;SDS011;395;48.132;11.608;2023-01-10T03:44:49;0.90;;;0.90;;
826;SDS011;395;48.132;11.608;2023-01-10T03:47:34;1.75;;;1.05;;
826;SDS011;395;48.132;11.608;2023-01-10T03:52:42;0.88;;;0.80;;
826;SDS011;395;48.132;11.608;2023-01-10T03:55:09;1.75;;;1.25;;
826;SDS011;395;48.132;11.608;2023-01-10T03:57:40;1.10;;;0.90;;
826;SDS011;395;48.132;11.608;2023-01-10T04:00:07;1.52;;;1.08;;
826;SDS011;395;48.132;11.608;2023-01-10T04:02:33;1.40;;;1.00;;
826;SDS011;395;48.132;11.608;2023-01-10T04:04:59;1.67;;;1.40;;
826;SDS011;395;48.132;11.608;2023-01-10T04:07:24;1.93;;;1.20;;
826;SDS011;395;48.132;11.608;2023-01-10T04:09:50;1.52;;;1.30;;
826;SDS011;395;48.132;11.608;2023-01-10T04:12:16;1.90;;;1.10;;
826;SDS011;395;48.132;11.608;2023-01-10T04:14:42;1.50;;;1.40;;
826;SDS011;395;48.132;11.608;2023-01-10T04:17:12;1.17;;;1.08;;
826;SDS011;395;48.132;11.608;2023-01-10T04:19:38;1.58;;;1.48;;
826;SDS011;395;48.132;11.608;2023-01-10T04:22:04;1.80;;;1.47;;
826;SDS011;395;48.132;11.608;2023-01-10T04:24:30;1.50;;;1.40;;
826;SDS011;395;48.132;11.608;2023-01-10T04:26:56;3.05;;;1.40;;
826;SDS011;395;48.132;11.608;2023-01-10T04:29:22;1.43;;;1.10;;
826;SDS011;395;48.132;11.608;2023-01-10T04:31:47;1.20;;;1.03;;
826;SDS011;395;48.132;11.608;2023-01-10T04:34:13;1.45;;;1.30;;
826;SDS011;395;48.132;11.608;2023-01-10T04:36:39;1.20;;;1.03;;
826;SDS011;395;48.132;11.608;2023-01-10T04:39:06;1.55;;;1.30;;
826;SDS011;395;48.132;11.608;2023-01-10T04:41:32;1.77;;;1.67;;
826;SDS011;395;48.132;11.608;2023-01-10T04:43:58;1.60;;;1.50;;
826;SDS011;395;48.132;11.608;2023-01-10T04:46:24;1.70;;;1.60;;
826;SDS011;395;48.132;11.608;2023-01-10T04:48:49;1.40;;;1.30;;
826;SDS011;395;48.132;11.608;2023-01-10T04:51:15;1.67;;;1.57;;
826;SDS011;395;48.132;11.608;2023-01-10T04:53:41;1.83;;;1.73;;
826;SDS011;395;48.132;11.608;2023-01-10T04:56:08;1.63;;;1.53;;
826;SDS011;395;48.132;11.608;2023-01-10T04:58:38;1.95;;;1.60;;
826;SDS011;395;48.132;11.608;2023-01-10T05:01:11;2.10;;;1.80;;
826;SDS011;395;48.132;11.608;2023-01-10T05:03:39;1.60;;;1.50;;
826;SDS011;395;48.132;11.608;2023-01-10T05:06:06;2.58;;;1.80;;
826;SDS011;395;48.132;11.608;2023-01-10T05:08:31;2.17;;;1.40;;
826;SDS011;395;48.132;11.608;2023-01-10T05:10:58;2.27;;;1.77;;
826;SDS011;395;48.132;11.608;2023-01-10T05:13:23;1.87;;;1.77;;
826;SDS011;395;48.132;11.608;2023-01-10T05:15:53;2.60;;;2.40;;
826;SDS011;395;48.132;11.608;2023-01-10T05:18:20;1.55;;;1.45;;
826;SDS011;395;48.132;11.608;2023-01-10T05:20:46;1.63;;;1.30;;
826;SDS011;395;48.132;11.608;2023-01-10T05:23:12;1.73;;;1.47;;
826;SDS011;395;48.132;11.608;2023-01-10T05:25:37;1.97;;;1.77;;
826;SDS011;395;48.132;11.608;2023-01-10T05:28:03;1.90;;;1.80;;
826;SDS011;395;48.132;11.608;2023-01-10T05:30:29;1.60;;;1.50;;
826;SDS011;395;48.132;11.608;2023-01-10T05:32:54;1.70;;;1.60;;
826;SDS011;395;48.132;11.608;2023-01-10T05:35:20;1.70;;;1.60;;
826;SDS011;395;48.132;11.608;2023-01-10T05:37:45;1.70;;;1.60;;
826;SDS011;395;48.132;11.608;2023-01-10T05:40:11;1.53;;;1.43;;
826;SDS011;395;48.132;11.608;2023-01-10T05:42:37;2.03;;;1.77;;
826;SDS011;395;48.132;11.608;2023-01-10T05:45:03;1.90;;;1.50;;
826;SDS011;395;48.132;11.608;2023-01-10T05:47:29;2.60;;;1.60;;
826;SDS011;395;48.132;11.608;2023-01-10T05:49:54;1.80;;;1.70;;
826;SDS011;395;48.132;11.608;2023-01-10T05:52:20;1.73;;;1.63;;
826;SDS011;395;48.132;11.608;2023-01-10T05:54:46;2.30;;;1.67;;
826;SDS011;395;48.132;11.608;2023-01-10T05:57:11;2.00;;;1.37;;
826;SDS011;395;48.132;11.608;2023-01-10T05:59:37;1.70;;;1.60;;
826;SDS011;395;48.132;11.608;2023-01-10T06:02:03;1.40;;;1.30;;
826;SDS011;395;48.132;11.608;2023-01-10T06:04:28;1.37;;;1.27;;
826;SDS011;395;48.132;11.608;2023-01-10T06:06:54;1.47;;;1.37;;
826;SDS011;395;48.132;11.608;2023-01-10T06:09:20;1.20;;;1.10;;
826;SDS011;395;48.132;11.608;2023-01-10T06:11:45;1.30;;;1.20;;
826;SDS011;395;48.132;11.608;2023-01-10T06:14:11;1.00;;;1.00;;
826;SDS011;395;48.132;11.608;2023-01-10T06:16:37;1.20;;;1.10;;
826;SDS011;395;48.132;11.608;2023-01-10T06:19:02;2.13;;;1.10;;
826;SDS011;395;48.132;11.608;2023-01-10T06:21:28;1.53;;;1.30;;
826;SDS011;395;48.132;11.608;2023-01-10T06:23:54;1.30;;;1.20;;
826;SDS011;395;48.132;11.608;2023-01-10T06:26:19;1.50;;;1.40;;
826;SDS011;395;48.132;11.608;2023-01-10T06:28:45;1.60;;;1.50;;
826;SDS011;395;48.132;11.608;2023-01-10T06:31:11;1.37;;;1.27;;
826;SDS011;395;48.132;11.608;2023-01-10T06:33:38;1.20;;;1.10;;
826;SDS011;395;48.132;11.608;2023-01-10T06:36:05;1.42;;;1.13;;
826;SDS011;395;48.132;11.608;2023-01-10T06:38:31;2.10;;;1.90;;
826;SDS011;395;48.132;11.608;2023-01-10T06:40:57;1.83;;;1.30;;
826;SDS011;395;48.132;11.608;2023-01-10T06:43:22;4.10;;;1.50;;
826;SDS011;395;48.132;11.608;2023-01-10T06:45:48;1.57;;;1.43;;
826;SDS011;395;48.132;11.608;2023-01-10T06:48:14;1.77;;;1.60;;
826;SDS011;395;48.132;11.608;2023-01-10T06:50:39;1.20;;;1.10;;
826;SDS011;395;48.132;11.608;2023-01-10T06:53:05;1.60;;;1.50;;
826;SDS011;395;48.132;11.608;2023-01-10T06:55:31;1.70;;;1.60;;
826;SDS011;395;48.132;11.608;2023-01-10T06:58:00;2.00;;;1.80;;
826;SDS011;395;48.132;11.608;2023-01-10T07:00:28;1.33;;;1.23;;
826;SDS011;395;48.132;11.608;2023-01-10T07:02:58;1.70;;;1.60;;
826;SDS011;395;48.132;11.608;2023-01-10T07:05:25;1.75;;;1.60;;
826;SDS011;395;48.132;11.608;2023-01-10T07:07:51;1.60;;;1.50;;
826;SDS011;395;48.132;11.608;2023-01-10T07:10:16;1.53;;;1.43;;
826;SDS011;395;48.132;11.608;2023-01-10T07:12:42;1.60;;;1.50;;
826;SDS011;395;48.132;11.608;2023-01-10T07:15:08;1.67;;;1.50;;
826;SDS011;395;48.132;11.608;2023-01-10T07:17:34;1.40;;;1.30;;
826;SDS011;395;48.132;11.608;2023-01-10T07:19:59;1.80;;;1.50;;
826;SDS011;395;48.132;11.608;2023-01-10T07:22:25;2.70;;;1.73;;
826;SDS011;395;48.132;11.608;2023-01-10T07:24:51;2.03;;;1.83;;
826;SDS011;395;48.132;11.608;2023-01-10T07:27:18;1.95;;;1.63;;
826;SDS011;395;48.132;11.608;2023-01-10T07:29:44;2.53;;;1.63;;
826;SDS011;395;48.132;11.608;2023-01-10T07:32:09;1.60;;;1.50;;
826;SDS011;395;48.132;11.608;2023-01-10T07:34:35;4.53;;;1.60;;
826;SDS011;395;48.132;11.608;2023-01-10T07:37:01;2.07;;;1.87;;
826;SDS011;395;48.132;11.608;2023-01-10T07:39:26;2.43;;;2.00;;
826;SDS011;395;48.132;11.608;2023-01-10T07:41:52;1.70;;;1.60;;
826;SDS011;395;48.132;11.608;2023-01-10T07:44:19;2.30;;;2.10;;
826;SDS011;395;48.132;11.608;2023-01-10T07:46:44;1.77;;;1.67;;
826;SDS011;395;48.132;11.608;2023-01-10T07:49:10;2.03;;;1.83;;
826;SDS011;395;48.132;11.608;2023-01-10T07:51:38;3.13;;;2.30;;
826;SDS011;395;48.132;11.608;2023-01-10T07:54:03;2.90;;;2.30;;
826;SDS011;395;48.132;11.608;2023-01-10T07:56:29;3.00;;;2.30;;
826;SDS011;395;48.132;11.608;2023-01-10T07:58:55;2.63;;;2.43;;
826;SDS011;395;48.132;11.608;2023-01-10T08:01:21;3.40;;;2.55;;
826;SDS011;395;48.132;11.608;2023-01-10T08:03:48;3.20;;;2.13;;
826;SDS011;395;48.132;11.608;2023-01-10T08:06:14;5.27;;;2.60;;
826;SDS011;395;48.132;11.608;2023-01-10T08:08:40;3.10;;;2.40;;
826;SDS011;395;48.132;11.608;2023-01-10T08:11:05;3.30;;;2.63;;
826;SDS011;395;48.132;11.608;2023-01-10T08:13:31;3.33;;;2.60;;
826;SDS011;395;48.132;11.608;2023-01-10T08:15:57;3.90;;;2.37;;
826;SDS011;395;48.132;11.608;2023-01-10T08:18:25;3.20;;;2.90;;
826;SDS011;395;48.132;11.608;2023-01-10T08:20:51;3.20;;;2.80;;
826;SDS011;395;48.132;11.608;2023-01-10T08:23:18;2.30;;;2.10;;
826;SDS011;395;48.132;11.608;2023-01-10T08:25:45;3.20;;;2.45;;
826;SDS011;395;48.132;11.608;2023-01-10T08:28:12;2.70;;;2.17;;
826;SDS011;395;48.132;11.608;2023-01-10T08:30:37;5.82;;;2.63;;
826;SDS011;395;48.132;11.608;2023-01-10T08:33:04;6.13;;;2.20;;
826;SDS011;395;48.132;11.608;2023-01-10T08:35:34;3.13;;;2.30;;
826;SDS011;395;48.132;11.608;2023-01-10T08:38:04;3.88;;;2.97;;
826;SDS011;395;48.132;11.608;2023-01-10T08:40:31;3.55;;;2.53;;
826;SDS011;395;48.132;11.608;2023-01-10T08:42:57;3.30;;;3.00;;
826;SDS011;395;48.132;11.608;2023-01-10T08:45:24;4.97;;;2.67;;
826;SDS011;395;48.132;11.608;2023-01-10T08:47:49;2.80;;;2.50;;
826;SDS011;395;48.132;11.608;2023-01-10T08:50:15;3.27;;;2.97;;
826;SDS011;395;48.132;11.608;2023-01-10T08:52:41;2.87;;;2.20;;
826;SDS011;395;48.132;11.608;2023-01-10T08:55:06;4.93;;;3.00;;
826;SDS011;395;48.132;11.608;2023-01-10T08:57:32;3.15;;;2.00;;
826;SDS011;395;48.132;11.608;2023-01-10T08:59:58;2.60;;;2.20;;
826;SDS011;395;48.132;11.608;2023-01-10T09:02:24;3.03;;;2.07;;
826;SDS011;395;48.132;11.608;2023-01-10T09:04:49;2.40;;;2.20;;
826;SDS011;395;48.132;11.608;2023-01-10T09:07:15;2.17;;;1.90;;
826;SDS011;395;48.132;11.608;2023-01-10T09:09:40;2.43;;;2.03;;
826;SDS011;395;48.132;11.608;2023-01-10T09:12:06;2.40;;;1.80;;
826;SDS011;395;48.132;11.608;2023-01-10T09:14:52;2.17;;;1.80;;
826;SDS011;395;48.132;11.608;2023-01-10T09:17:17;2.63;;;1.70;;
826;SDS011;395;48.132;11.608;2023-01-10T09:19:43;1.60;;;1.50;;
826;SDS011;395;48.132;11.608;2023-01-10T09:22:09;1.90;;;1.60;;
826;SDS011;395;48.132;11.608;2023-01-10T09:24:34;2.10;;;1.17;;
826;SDS011;395;48.132;11.608;2023-01-10T09:27:01;4.18;;;2.00;;
826;SDS011;395;48.132;11.608;2023-01-10T09:29:27;1.53;;;1.17;;
826;SDS011;395;48.132;11.608;2023-01-10T09:31:53;3.10;;;1.33;;
826;SDS011;395;48.132;11.608;2023-01-10T09:34:18;2.47;;;1.43;;
826;SDS011;395;48.132;11.608;2023-01-10T09:36:44;5.30;;;1.80;;
826;SDS011;395;48.132;11.608;2023-01-10T09:39:09;3.80;;;1.70;;
826;SDS011;395;48.132;11.608;2023-01-10T09:44:04;3.90;;;2.67;;
826;SDS011;395;48.132;11.608;2023-01-10T09:46:56;4.75;;;2.70;;
826;SDS011;395;48.132;11.608;2023-01-10T09:52:17;3.57;;;2.77;;
826;SDS011;395;48.132;11.608;2023-01-10T09:54:50;5.68;;;3.17;;
826;SDS011;395;48.132;11.608;2023-01-10T09:57:18;3.30;;;2.80;;
826;SDS011;395;48.132;11.608;2023-01-10T09:59:46;2.85;;;2.58;;
826;SDS011;395;48.132;11.608;2023-01-10T10:05:09;3.72;;;2.70;;
826;SDS011;395;48.132;11.608;2023-01-10T10:07:36;3.70;;;2.55;;
826;SDS011;395;48.132;11.608;2023-01-10T10:10:03;4.53;;;2.30;;
826;SDS011;395;48.132;11.608;2023-01-10T10:12:40;3.42;;;2.20;;
826;SDS011;395;48.132;11.608;2023-01-10T10:24:03;4.40;;;2.28;;
826;SDS011;395;48.132;11.608;2023-01-10T10:27:07;2.75;;;1.90;;
826;SDS011;395;48.132;11.608;2023-01-10T10:29:54;3.58;;;1.63;;
826;SDS011;395;48.132;11.608;2023-01-10T10:35:37;4.53;;;1.90;;
826;SDS011;395;48.132;11.608;2023-01-10T10:38:25;1.80;;;1.40;;
826;SDS011;395;48.132;11.608;2023-01-10T10:40:56;3.05;;;1.60;;
826;SDS011;395;48.132;11.608;2023-01-10T10:43:25;4.20;;;1.45;;
826;SDS011;395;48.132;11.608;2023-01-10T10:46:06;4.10;;;1.38;;
826;SDS011;395;48.132;11.608;2023-01-10T10:48:48;3.35;;;1.50;;
826;SDS011;395;48.132;11.608;2023-01-10T10:51:20;4.25;;;1.65;;
826;SDS011;395;48.132;11.608;2023-01-10T10:53:50;3.95;;;1.25;;
826;SDS011;395;48.132;11.608;2023-01-10T10:56:18;1.98;;;1.35;;
826;SDS011;395;48.132;11.608;2023-01-10T10:58:48;2.35;;;1.30;;
826;SDS011;395;48.132;11.608;2023-01-10T11:01:17;1.83;;;0.90;;
826;SDS011;395;48.132;11.608;2023-01-10T11:06:15;2.10;;;1.20;;
826;SDS011;395;48.132;11.608;2023-01-10T11:08:44;4.72;;;1.50;;
826;SDS011;395;48.132;11.608;2023-01-10T11:11:18;2.60;;;1.50;;
826;SDS011;395;48.132;11.608;2023-01-10T11:14:12;2.70;;;1.25;;
826;SDS011;395;48.132;11.608;2023-01-10T11:16:38;4.47;;;1.20;;
826;SDS011;395;48.132;11.608;2023-01-10T11:21:45;2.97;;;1.20;;
826;SDS011;395;48.132;11.608;2023-01-10T11:24:48;3.33;;;1.20;;
826;SDS011;395;48.132;11.608;2023-01-10T11:27:15;3.25;;;1.05;;
826;SDS011;395;48.132;11.608;2023-01-10T11:32:18;4.55;;;1.45;;
826;SDS011;395;48.132;11.608;2023-01-10T11:35:00;2.00;;;1.35;;
826;SDS011;395;48.132;11.608;2023-01-10T11:37:32;4.45;;;1.25;;
826;SDS011;395;48.132;11.608;2023-01-10T11:40:08;1.35;;;0.95;;
826;SDS011;395;48.132;11.608;2023-01-10T11:42:52;2.70;;;1.13;;
826;SDS011;395;48.132;11.608;2023-01-10T11:47:49;2.50;;;1.00;;
826;SDS011;395;48.132;11.608;2023-01-10T11:50:34;2.80;;;1.60;;
826;SDS011;395;48.132;11.608;2023-01-10T11:53:02;4.80;;;1.27;;
826;SDS011;395;48.132;11.608;2023-01-10T11:55:30;3.95;;;1.40;;
826;SDS011;395;48.132;11.608;2023-01-10T11:58:08;3.63;;;1.30;;
826;SDS011;395;48.132;11.608;2023-01-10T12:00:40;5.20;;;2.42;;
826;SDS011;395;48.132;11.608;2023-01-10T12:05:52;4.35;;;1.60;;
826;SDS011;395;48.132;11.608;2023-01-10T12:08:28;5.22;;;2.10;;
826;SDS011;395;48.132;11.608;2023-01-10T12:13:26;5.57;;;1.55;;
826;SDS011;395;48.132;11.608;2023-01-10T12:16:40;3.15;;;1.55;;
826;SDS011;395;48.132;11.608;2023-01-10T12:18:43;3.03;;;1.80;;
826;SDS011;395;48.132;11.608;2023-01-10T12:21:09;3.15;;;1.30;;
826;SDS011;395;48.132;11.608;2023-01-10T12:23:39;2.30;;;1.33;;
826;SDS011;395;48.132;11.608;2023-01-10T12:26:08;2.88;;;1.50;;
826;SDS011;395;48.132;11.608;2023-01-10T12:28:37;3.15;;;1.30;;
826;SDS011;395;48.132;11.608;2023-01-10T12:31:12;2.97;;;1.77;;
826;SDS011;395;48.132;11.608;2023-01-10T12:33:42;4.82;;;2.22;;
826;SDS011;395;48.132;11.608;2023-01-10T12:38:53;3.65;;;1.60;;
826;SDS011;395;48.132;11.608;2023-01-10T12:41:32;4.00;;;1.65;;
826;SDS011;395;48.132;11.608;2023-01-10T12:50:17;2.65;;;1.08;;
826;SDS011;395;48.132;11.608;2023-01-10T12:52:53;5.50;;;1.45;;
826;SDS011;395;48.132;11.608;2023-01-10T12:55:26;3.65;;;1.17;;
826;SDS011;395;48.132;11.608;2023-01-10T12:58:04;6.35;;;1.60;;
826;SDS011;395;48.132;11.608;2023-01-10T13:00:36;3.78;;;1.23;;
826;SDS011;395;48.132;11.608;2023-01-10T13:03:10;1.92;;;1.08;;
826;SDS011;395;48.132;11.608;2023-01-10T13:05:39;3.35;;;1.35;;
826;SDS011;395;48.132;11.608;2023-01-10T13:08:06;2.80;;;1.48;;
826;SDS011;395;48.132;11.608;2023-01-10T13:10:39;2.90;;;1.20;;
826;SDS011;395;48.132;11.608;2023-01-10T13:13:12;3.65;;;1.10;;
826;SDS011;395;48.132;11.608;2023-01-10T13:21:34;2.10;;;1.33;;
826;SDS011;395;48.132;11.608;2023-01-10T13:26:54;4.68;;;1.45;;
826;SDS011;395;48.132;11.608;2023-01-10T13:29:25;4.13;;;1.20;;
826;SDS011;395;48.132;11.608;2023-01-10T13:31:54;4.30;;;1.05;;
826;SDS011;395;48.132;11.608;2023-01-10T13:34:26;2.95;;;1.20;;
826;SDS011;395;48.132;11.608;2023-01-10T13:37:08;1.88;;;1.17;;
826;SDS011;395;48.132;11.608;2023-01-10T13:39:38;3.00;;;1.02;;
826;SDS011;395;48.132;11.608;2023-01-10T13:42:10;1.58;;;1.00;;
826;SDS011;395;48.132;11.608;2023-01-10T14:00:42;3.38;;;1.23;;
826;SDS011;395;48.132;11.608;2023-01-10T14:06:54;2.45;;;1.20;;
826;SDS011;395;48.132;11.608;2023-01-10T14:17:07;3.20;;;1.25;;
826;SDS011;395;48.132;11.608;2023-01-10T14:19:40;2.80;;;1.15;;
826;SDS011;395;48.132;11.608;2023-01-10T14:22:20;2.50;;;1.17;;
826;SDS011;395;48.132;11.608;2023-01-10T14:24:50;4.03;;;1.38;;
826;SDS011;395;48.132;11.608;2023-01-10T14:27:17;2.88;;;1.27;;
826;SDS011;395;48.132;11.608;2023-01-10T14:29:55;2.42;;;1.48;;
826;SDS011;395;48.132;11.608;2023-01-10T14:32:30;4.70;;;1.30;;
826;SDS011;395;48.132;11.608;2023-01-10T14:35:06;3.47;;;1.60;;
826;SDS011;395;48.132;11.608;2023-01-10T14:37:41;3.22;;;1.58;;
826;SDS011;395;48.132;11.608;2023-01-10T14:40:22;2.97;;;1.30;;
826;SDS011;395;48.132;11.608;2023-01-10T14:43:03;5.43;;;1.30;;
826;SDS011;395;48.132;11.608;2023-01-10T14:48:25;3.90;;;1.90;;
826;SDS011;395;48.132;11.608;2023-01-10T14:56:28;3.10;;;1.10;;
826;SDS011;395;48.132;11.608;2023-01-10T14:59:22;5.15;;;1.70;;
826;SDS011;395;48.132;11.608;2023-01-10T15:01:54;1.92;;;1.05;;
826;SDS011;395;48.132;11.608;2023-01-10T15:04:23;2.65;;;1.08;;
826;SDS011;395;48.132;11.608;2023-01-10T15:09:24;3.17;;;1.45;;
826;SDS011;395;48.132;11.608;2023-01-10T15:11:53;1.13;;;0.95;;
826;SDS011;395;48.132;11.608;2023-01-10T15:14:22;3.25;;;1.27;;
826;SDS011;395;48.132;11.608;2023-01-10T15:16:51;3.55;;;1.50;;
826;SDS011;395;48.132;11.608;2023-01-10T15:19:21;1.52;;;1.17;;
826;SDS011;395;48.132;11.608;2023-01-10T15:21:48;2.38;;;1.30;;
826;SDS011;395;48.132;11.608;2023-01-10T15:24:24;2.05;;;0.98;;
826;SDS011;395;48.132;11.608;2023-01-10T15:26:58;1.50;;;1.00;;
826;SDS011;395;48.132;11.608;2023-01-10T15:29:37;1.80;;;1.40;;
826;SDS011;395;48.132;11.608;2023-01-10T15:32:09;3.80;;;1.35;;
826;SDS011;395;48.132;11.608;2023-01-10T15:34:39;3.85;;;1.27;;
826;SDS011;395;48.132;11.608;2023-01-10T15:37:06;5.15;;;1.40;;
826;SDS011;395;48.132;11.608;2023-01-10T15:39:43;4.97;;;1.75;;
826;SDS011;395;48.132;11.608;2023-01-10T15:42:11;3.95;;;1.40;;
826;SDS011;395;48.132;11.608;2023-01-10T15:44:41;2.87;;;1.37;;
826;SDS011;395;48.132;11.608;2023-01-10T15:52:51;7.80;;;3.28;;
826;SDS011;395;48.132;11.608;2023-01-10T15:55:42;5.07;;;1.45;;
826;SDS011;395;48.132;11.608;2023-01-10T15:58:12;10.27;;;3.60;;
826;SDS011;395;48.132;11.608;2023-01-10T16:00:52;4.25;;;1.85;;
826;SDS011;395;48.132;11.608;2023-01-10T16:05:54;6.53;;;2.38;;
826;SDS011;395;48.132;11.608;2023-01-10T16:08:24;5.05;;;2.05;;
826;SDS011;395;48.132;11.608;2023-01-10T16:10:56;8.35;;;2.30;;
826;SDS011;395;48.132;11.608;2023-01-10T16:13:23;7.32;;;3.25;;
826;SDS011;395;48.132;11.608;2023-01-10T16:15:53;9.02;;;4.25;;
826;SDS011;395;48.132;11.608;2023-01-10T16:18:19;18.30;;;6.90;;
826;SDS011;395;48.132;11.608;2023-01-10T16:20:45;9.23;;;3.87;;
826;SDS011;395;48.132;11.608;2023-01-10T16:23:13;8.80;;;3.33;;
826;SDS011;395;48.132;11.608;2023-01-10T16:25:48;12.55;;;5.00;;
826;SDS011;395;48.132;11.608;2023-01-10T16:28:17;7.60;;;2.92;;
826;SDS011;395;48.132;11.608;2023-01-10T16:30:44;5.90;;;2.78;;
826;SDS011;395;48.132;11.608;2023-01-10T16:33:19;6.53;;;2.08;;
826;SDS011;395;48.132;11.608;2023-01-10T16:35:49;7.80;;;4.30;;
826;SDS011;395;48.132;11.608;2023-01-10T16:38:18;4.40;;;2.13;;
826;SDS011;395;48.132;11.608;2023-01-10T16:40:48;8.25;;;3.20;;
826;SDS011;395;48.132;11.608;2023-01-10T16:43:22;5.20;;;3.00;;
826;SDS011;395;48.132;11.608;2023-01-10T16:48:23;5.82;;;3.15;;
826;SDS011;395;48.132;11.608;2023-01-10T16:50:50;7.30;;;3.50;;
826;SDS011;395;48.132;11.608;2023-01-10T16:53:17;5.05;;;3.15;;
826;SDS011;395;48.132;11.608;2023-01-10T16:55:45;5.10;;;3.05;;
826;SDS011;395;48.132;11.608;2023-01-10T16:58:12;7.78;;;3.78;;
826;SDS011;395;48.132;11.608;2023-01-10T17:00:39;6.28;;;2.25;;
826;SDS011;395;48.132;11.608;2023-01-10T17:03:16;7.88;;;2.58;;
826;SDS011;395;48.132;11.608;2023-01-10T17:05:45;2.63;;;2.25;;
826;SDS011;395;48.132;11.608;2023-01-10T17:08:16;2.72;;;1.80;;
826;SDS011;395;48.132;11.608;2023-01-10T17:10:49;3.45;;;2.38;;
826;SDS011;395;48.132;11.608;2023-01-10T17:13:20;4.13;;;2.00;;
826;SDS011;395;48.132;11.608;2023-01-10T17:15:49;2.40;;;1.60;;
826;SDS011;395;48.132;11.608;2023-01-10T17:18:14;3.70;;;2.10;;
826;SDS011;395;48.132;11.608;2023-01-10T17:20:40;4.23;;;2.30;;
826;SDS011;395;48.132;11.608;2023-01-10T17:23:06;7.63;;;2.20;;
826;SDS011;395;48.132;11.608;2023-01-10T17:25:34;3.88;;;2.10;;
826;SDS011;395;48.132;11.608;2023-01-10T17:27:59;4.13;;;2.10;;
826;SDS011;395;48.132;11.608;2023-01-10T17:30:25;5.30;;;2.30;;
826;SDS011;395;48.132;11.608;2023-01-10T17:32:51;3.70;;;1.83;;
826;SDS011;395;48.132;11.608;2023-01-10T17:35:16;4.07;;;2.57;;
826;SDS011;395;48.132;11.608;2023-01-10T17:37:42;6.60;;;3.60;;
826;SDS011;395;48.132;11.608;2023-01-10T17:40:08;3.90;;;2.30;;
826;SDS011;395;48.132;11.608;2023-01-10T17:42:34;7.72;;;2.95;;
826;SDS011;395;48.132;11.608;2023-01-10T17:45:01;4.63;;;2.80;;
826;SDS011;395;48.132;11.608;2023-01-10T17:47:27;3.53;;;2.70;;
826;SDS011;395;48.132;11.608;2023-01-10T17:49:53;3.93;;;2.30;;
826;SDS011;395;48.132;11.608;2023-01-10T17:52:19;3.33;;;2.27;;
826;SDS011;395;48.132;11.608;2023-01-10T17:54:44;6.07;;;2.37;;
826;SDS011;395;48.132;11.608;2023-01-10T17:57:10;5.80;;;2.87;;
826;SDS011;395;48.132;11.608;2023-01-10T17:59:36;4.53;;;2.70;;
826;SDS011;395;48.132;11.608;2023-01-10T18:02:01;3.97;;;3.03;;